sensor_id;sensor_type;location;lat;lon;timestamp;P1;durP1;ratioP1;P2;durP2;ratioP2
55758;SDS011;41678;52.126;20.664;2023-05-27T00:00:43;10.63;;;2.72;;
55758;SDS011;41678;52.126;20.664;2023-05-27T00:06:04;8.82;;;2.63;;
55758;SDS011;41678;52.126;20.664;2023-05-27T00:11:24;10.65;;;1.88;;
55758;SDS011;41678;52.126;20.664;2023-05-27T00:16:44;10.15;;;1.83;;
55758;SDS011;41678;52.126;20.664;2023-05-27T00:22:04;18.10;;;2.55;;
55758;SDS011;41678;52.126;20.664;2023-05-27T00:27:24;16.77;;;2.42;;
55758;SDS011;41678;52.126;20.664;2023-05-27T00:32:44;10.48;;;2.38;;
55758;SDS011;41678;52.126;20.664;2023-05-27T00:38:04;9.43;;;1.90;;
55758;SDS011;41678;52.126;20.664;2023-05-27T00:43:24;13.35;;;2.30;;
55758;SDS011;41678;52.126;20.664;2023-05-27T00:48:45;10.05;;;3.17;;
55758;SDS011;41678;52.126;20.664;2023-05-27T00:54:06;17.48;;;2.25;;
55758;SDS011;41678;52.126;20.664;2023-05-27T00:59:27;15.88;;;2.67;;
55758;SDS011;41678;52.126;20.664;2023-05-27T01:04:47;9.18;;;2.72;;
55758;SDS011;41678;52.126;20.664;2023-05-27T01:15:35;10.88;;;1.98;;
55758;SDS011;41678;52.126;20.664;2023-05-27T01:20:57;13.68;;;2.17;;
55758;SDS011;41678;52.126;20.664;2023-05-27T01:26:21;12.38;;;2.17;;
55758;SDS011;41678;52.126;20.664;2023-05-27T01:31:43;7.63;;;2.00;;
55758;SDS011;41678;52.126;20.664;2023-05-27T01:37:09;8.27;;;2.10;;
55758;SDS011;41678;52.126;20.664;2023-05-27T01:42:34;7.00;;;1.48;;
55758;SDS011;41678;52.126;20.664;2023-05-27T01:53:15;8.88;;;1.98;;
55758;SDS011;41678;52.126;20.664;2023-05-27T01:58:34;8.68;;;2.17;;
55758;SDS011;41678;52.126;20.664;2023-05-27T02:03:54;15.57;;;3.38;;
55758;SDS011;41678;52.126;20.664;2023-05-27T02:09:14;11.85;;;1.98;;
55758;SDS011;41678;52.126;20.664;2023-05-27T02:14:34;13.90;;;2.10;;
55758;SDS011;41678;52.126;20.664;2023-05-27T02:19:57;8.85;;;1.58;;
55758;SDS011;41678;52.126;20.664;2023-05-27T02:25:17;8.07;;;1.73;;
55758;SDS011;41678;52.126;20.664;2023-05-27T02:30:37;11.85;;;2.28;;
55758;SDS011;41678;52.126;20.664;2023-05-27T02:35:57;9.75;;;2.70;;
55758;SDS011;41678;52.126;20.664;2023-05-27T02:41:17;11.20;;;2.35;;
55758;SDS011;41678;52.126;20.664;2023-05-27T02:46:36;13.50;;;2.65;;
55758;SDS011;41678;52.126;20.664;2023-05-27T02:51:56;11.60;;;2.50;;
55758;SDS011;41678;52.126;20.664;2023-05-27T02:57:15;13.20;;;2.72;;
55758;SDS011;41678;52.126;20.664;2023-05-27T03:02:35;8.35;;;2.13;;
55758;SDS011;41678;52.126;20.664;2023-05-27T03:07:54;11.27;;;2.25;;
55758;SDS011;41678;52.126;20.664;2023-05-27T03:13:16;9.13;;;2.15;;
55758;SDS011;41678;52.126;20.664;2023-05-27T03:18:37;12.90;;;2.45;;
55758;SDS011;41678;52.126;20.664;2023-05-27T03:23:56;18.13;;;2.85;;
55758;SDS011;41678;52.126;20.664;2023-05-27T03:29:16;11.48;;;3.30;;
55758;SDS011;41678;52.126;20.664;2023-05-27T03:34:36;10.27;;;2.60;;
55758;SDS011;41678;52.126;20.664;2023-05-27T03:39:56;9.77;;;2.08;;
55758;SDS011;41678;52.126;20.664;2023-05-27T03:45:17;10.57;;;2.28;;
55758;SDS011;41678;52.126;20.664;2023-05-27T03:50:38;12.75;;;3.60;;
55758;SDS011;41678;52.126;20.664;2023-05-27T03:55:58;21.02;;;3.22;;
55758;SDS011;41678;52.126;20.664;2023-05-27T04:01:18;9.75;;;2.53;;
55758;SDS011;41678;52.126;20.664;2023-05-27T04:06:40;8.60;;;1.77;;
55758;SDS011;41678;52.126;20.664;2023-05-27T04:12:01;19.87;;;2.90;;
55758;SDS011;41678;52.126;20.664;2023-05-27T04:17:21;8.35;;;2.35;;
55758;SDS011;41678;52.126;20.664;2023-05-27T04:22:41;15.80;;;3.03;;
55758;SDS011;41678;52.126;20.664;2023-05-27T04:28:03;8.70;;;2.13;;
55758;SDS011;41678;52.126;20.664;2023-05-27T04:33:25;8.93;;;2.05;;
55758;SDS011;41678;52.126;20.664;2023-05-27T04:38:46;13.13;;;3.45;;
55758;SDS011;41678;52.126;20.664;2023-05-27T04:44:06;15.13;;;2.65;;
55758;SDS011;41678;52.126;20.664;2023-05-27T04:49:31;9.05;;;2.08;;
55758;SDS011;41678;52.126;20.664;2023-05-27T04:54:51;7.95;;;2.15;;
55758;SDS011;41678;52.126;20.664;2023-05-27T05:00:24;9.70;;;2.78;;
55758;SDS011;41678;52.126;20.664;2023-05-27T05:05:58;12.40;;;2.13;;
55758;SDS011;41678;52.126;20.664;2023-05-27T05:11:18;8.93;;;1.85;;
55758;SDS011;41678;52.126;20.664;2023-05-27T05:16:39;10.43;;;2.03;;
55758;SDS011;41678;52.126;20.664;2023-05-27T05:22:00;11.88;;;2.42;;
55758;SDS011;41678;52.126;20.664;2023-05-27T05:27:21;7.10;;;2.00;;
55758;SDS011;41678;52.126;20.664;2023-05-27T05:32:41;11.60;;;2.65;;
55758;SDS011;41678;52.126;20.664;2023-05-27T05:38:02;8.15;;;2.35;;
55758;SDS011;41678;52.126;20.664;2023-05-27T05:43:21;12.57;;;2.90;;
55758;SDS011;41678;52.126;20.664;2023-05-27T05:48:42;12.57;;;2.13;;
55758;SDS011;41678;52.126;20.664;2023-05-27T05:54:05;10.77;;;2.58;;
55758;SDS011;41678;52.126;20.664;2023-05-27T05:59:28;12.90;;;2.42;;
55758;SDS011;41678;52.126;20.664;2023-05-27T06:04:48;11.10;;;2.38;;
55758;SDS011;41678;52.126;20.664;2023-05-27T06:10:08;5.10;;;1.70;;
55758;SDS011;41678;52.126;20.664;2023-05-27T06:15:34;6.97;;;2.40;;
55758;SDS011;41678;52.126;20.664;2023-05-27T06:20:55;8.85;;;2.10;;
55758;SDS011;41678;52.126;20.664;2023-05-27T06:26:17;14.05;;;2.53;;
55758;SDS011;41678;52.126;20.664;2023-05-27T06:31:42;11.48;;;2.53;;
55758;SDS011;41678;52.126;20.664;2023-05-27T06:37:02;10.68;;;2.10;;
55758;SDS011;41678;52.126;20.664;2023-05-27T06:42:22;11.52;;;2.42;;
55758;SDS011;41678;52.126;20.664;2023-05-27T06:48:01;16.75;;;2.25;;
55758;SDS011;41678;52.126;20.664;2023-05-27T06:53:20;12.27;;;1.80;;
55758;SDS011;41678;52.126;20.664;2023-05-27T06:58:50;9.65;;;2.88;;
55758;SDS011;41678;52.126;20.664;2023-05-27T07:10:40;6.50;;;1.70;;
55758;SDS011;41678;52.126;20.664;2023-05-27T07:16:00;6.28;;;1.52;;
55758;SDS011;41678;52.126;20.664;2023-05-27T07:21:20;12.20;;;1.83;;
55758;SDS011;41678;52.126;20.664;2023-05-27T07:26:40;9.55;;;1.85;;
55758;SDS011;41678;52.126;20.664;2023-05-27T07:32:00;5.43;;;1.60;;
55758;SDS011;41678;52.126;20.664;2023-05-27T07:37:23;6.07;;;1.67;;
55758;SDS011;41678;52.126;20.664;2023-05-27T07:42:43;7.10;;;1.30;;
55758;SDS011;41678;52.126;20.664;2023-05-27T07:48:04;28.60;;;2.03;;
55758;SDS011;41678;52.126;20.664;2023-05-27T07:53:23;6.35;;;1.25;;
55758;SDS011;41678;52.126;20.664;2023-05-27T07:58:43;5.60;;;1.27;;
55758;SDS011;41678;52.126;20.664;2023-05-27T08:04:05;4.72;;;1.30;;
55758;SDS011;41678;52.126;20.664;2023-05-27T08:09:29;4.70;;;1.23;;
55758;SDS011;41678;52.126;20.664;2023-05-27T08:14:51;6.03;;;1.50;;
55758;SDS011;41678;52.126;20.664;2023-05-27T08:20:17;4.93;;;1.20;;
55758;SDS011;41678;52.126;20.664;2023-05-27T08:25:43;4.25;;;1.10;;
55758;SDS011;41678;52.126;20.664;2023-05-27T08:31:16;3.75;;;1.10;;
55758;SDS011;41678;52.126;20.664;2023-05-27T08:36:42;6.22;;;1.13;;
55758;SDS011;41678;52.126;20.664;2023-05-27T08:42:02;9.85;;;1.35;;
55758;SDS011;41678;52.126;20.664;2023-05-27T08:47:22;5.80;;;1.60;;
55758;SDS011;41678;52.126;20.664;2023-05-27T08:52:46;13.45;;;1.95;;
55758;SDS011;41678;52.126;20.664;2023-05-27T08:58:10;3.63;;;1.10;;
55758;SDS011;41678;52.126;20.664;2023-05-27T09:03:35;26.05;;;4.18;;
55758;SDS011;41678;52.126;20.664;2023-05-27T09:08:55;8.00;;;1.17;;
55758;SDS011;41678;52.126;20.664;2023-05-27T09:14:21;4.47;;;1.38;;
55758;SDS011;41678;52.126;20.664;2023-05-27T09:19:41;3.88;;;1.05;;
55758;SDS011;41678;52.126;20.664;2023-05-27T09:25:01;3.17;;;1.08;;
55758;SDS011;41678;52.126;20.664;2023-05-27T09:30:20;3.50;;;0.95;;
55758;SDS011;41678;52.126;20.664;2023-05-27T09:35:41;6.15;;;1.30;;
55758;SDS011;41678;52.126;20.664;2023-05-27T09:41:02;4.57;;;1.00;;
55758;SDS011;41678;52.126;20.664;2023-05-27T09:46:22;12.52;;;1.45;;
55758;SDS011;41678;52.126;20.664;2023-05-27T09:51:45;4.78;;;1.10;;
55758;SDS011;41678;52.126;20.664;2023-05-27T10:02:26;4.82;;;0.93;;
55758;SDS011;41678;52.126;20.664;2023-05-27T10:07:48;4.40;;;1.10;;
55758;SDS011;41678;52.126;20.664;2023-05-27T10:13:08;8.20;;;1.05;;
55758;SDS011;41678;52.126;20.664;2023-05-27T10:18:28;3.20;;;0.75;;
55758;SDS011;41678;52.126;20.664;2023-05-27T10:29:20;3.83;;;1.27;;
55758;SDS011;41678;52.126;20.664;2023-05-27T10:34:44;6.10;;;1.10;;
55758;SDS011;41678;52.126;20.664;2023-05-27T10:40:06;4.65;;;1.35;;
55758;SDS011;41678;52.126;20.664;2023-05-27T10:45:33;3.75;;;1.05;;
55758;SDS011;41678;52.126;20.664;2023-05-27T10:50:53;2.88;;;0.80;;
55758;SDS011;41678;52.126;20.664;2023-05-27T10:56:16;4.28;;;1.02;;
55758;SDS011;41678;52.126;20.664;2023-05-27T11:01:36;2.25;;;0.73;;
55758;SDS011;41678;52.126;20.664;2023-05-27T11:06:56;3.60;;;0.70;;
55758;SDS011;41678;52.126;20.664;2023-05-27T11:12:20;3.95;;;1.08;;
55758;SDS011;41678;52.126;20.664;2023-05-27T11:17:41;2.55;;;0.70;;
55758;SDS011;41678;52.126;20.664;2023-05-27T11:23:00;15.75;;;1.58;;
55758;SDS011;41678;52.126;20.664;2023-05-27T11:28:20;4.50;;;1.02;;
55758;SDS011;41678;52.126;20.664;2023-05-27T11:33:41;3.72;;;0.80;;
55758;SDS011;41678;52.126;20.664;2023-05-27T11:39:02;4.03;;;1.10;;
55758;SDS011;41678;52.126;20.664;2023-05-27T11:44:23;6.05;;;1.10;;
55758;SDS011;41678;52.126;20.664;2023-05-27T11:55:15;6.30;;;1.20;;
55758;SDS011;41678;52.126;20.664;2023-05-27T12:00:35;5.40;;;0.90;;
55758;SDS011;41678;52.126;20.664;2023-05-27T12:05:55;3.78;;;0.98;;
55758;SDS011;41678;52.126;20.664;2023-05-27T12:11:14;4.72;;;1.25;;
55758;SDS011;41678;52.126;20.664;2023-05-27T12:16:34;4.90;;;0.88;;
55758;SDS011;41678;52.126;20.664;2023-05-27T12:21:54;5.07;;;1.05;;
55758;SDS011;41678;52.126;20.664;2023-05-27T12:27:14;3.08;;;0.90;;
55758;SDS011;41678;52.126;20.664;2023-05-27T12:32:34;5.43;;;1.52;;
55758;SDS011;41678;52.126;20.664;2023-05-27T12:37:54;11.02;;;1.50;;
55758;SDS011;41678;52.126;20.664;2023-05-27T12:43:14;5.70;;;0.95;;
55758;SDS011;41678;52.126;20.664;2023-05-27T12:48:34;4.35;;;1.17;;
55758;SDS011;41678;52.126;20.664;2023-05-27T12:53:53;5.72;;;1.10;;
55758;SDS011;41678;52.126;20.664;2023-05-27T12:59:13;2.63;;;0.98;;
55758;SDS011;41678;52.126;20.664;2023-05-27T13:04:32;13.15;;;1.20;;
55758;SDS011;41678;52.126;20.664;2023-05-27T13:09:53;6.25;;;1.00;;
55758;SDS011;41678;52.126;20.664;2023-05-27T13:15:12;3.78;;;0.95;;
55758;SDS011;41678;52.126;20.664;2023-05-27T13:20:32;4.43;;;1.05;;
55758;SDS011;41678;52.126;20.664;2023-05-27T13:25:52;10.10;;;1.17;;
55758;SDS011;41678;52.126;20.664;2023-05-27T13:31:15;6.80;;;1.77;;
55758;SDS011;41678;52.126;20.664;2023-05-27T13:36:35;9.00;;;1.50;;
55758;SDS011;41678;52.126;20.664;2023-05-27T13:41:54;3.63;;;1.20;;
55758;SDS011;41678;52.126;20.664;2023-05-27T13:47:14;5.65;;;1.00;;
55758;SDS011;41678;52.126;20.664;2023-05-27T13:52:33;6.03;;;1.15;;
55758;SDS011;41678;52.126;20.664;2023-05-27T13:57:53;5.78;;;1.83;;
55758;SDS011;41678;52.126;20.664;2023-05-27T14:03:13;5.75;;;1.00;;
55758;SDS011;41678;52.126;20.664;2023-05-27T14:08:33;4.43;;;0.73;;
55758;SDS011;41678;52.126;20.664;2023-05-27T14:13:53;3.35;;;0.88;;
55758;SDS011;41678;52.126;20.664;2023-05-27T14:25:13;4.68;;;0.93;;
55758;SDS011;41678;52.126;20.664;2023-05-27T14:30:36;3.78;;;0.80;;
55758;SDS011;41678;52.126;20.664;2023-05-27T14:35:59;3.78;;;1.08;;
55758;SDS011;41678;52.126;20.664;2023-05-27T14:41:21;2.88;;;0.80;;
55758;SDS011;41678;52.126;20.664;2023-05-27T14:52:00;3.35;;;0.90;;
55758;SDS011;41678;52.126;20.664;2023-05-27T14:57:20;16.20;;;1.40;;
55758;SDS011;41678;52.126;20.664;2023-05-27T15:02:39;4.05;;;1.00;;
55758;SDS011;41678;52.126;20.664;2023-05-27T15:08:00;3.17;;;0.90;;
55758;SDS011;41678;52.126;20.664;2023-05-27T15:13:21;4.57;;;1.13;;
55758;SDS011;41678;52.126;20.664;2023-05-27T15:18:40;5.22;;;1.10;;
55758;SDS011;41678;52.126;20.664;2023-05-27T15:23:59;6.95;;;1.20;;
55758;SDS011;41678;52.126;20.664;2023-05-27T15:29:19;4.22;;;1.08;;
55758;SDS011;41678;52.126;20.664;2023-05-27T15:34:40;6.75;;;1.08;;
55758;SDS011;41678;52.126;20.664;2023-05-27T15:40:00;2.92;;;0.80;;
55758;SDS011;41678;52.126;20.664;2023-05-27T15:45:19;6.25;;;1.00;;
55758;SDS011;41678;52.126;20.664;2023-05-27T15:50:39;3.35;;;0.85;;
55758;SDS011;41678;52.126;20.664;2023-05-27T16:01:20;4.80;;;1.10;;
55758;SDS011;41678;52.126;20.664;2023-05-27T16:06:39;5.63;;;1.33;;
55758;SDS011;41678;52.126;20.664;2023-05-27T16:11:59;3.67;;;1.13;;
55758;SDS011;41678;52.126;20.664;2023-05-27T16:17:18;9.30;;;1.30;;
55758;SDS011;41678;52.126;20.664;2023-05-27T16:22:39;4.55;;;1.30;;
55758;SDS011;41678;52.126;20.664;2023-05-27T16:27:59;5.25;;;1.13;;
55758;SDS011;41678;52.126;20.664;2023-05-27T16:33:19;3.90;;;1.10;;
55758;SDS011;41678;52.126;20.664;2023-05-27T16:38:38;6.95;;;1.33;;
55758;SDS011;41678;52.126;20.664;2023-05-27T16:43:57;6.47;;;1.25;;
55758;SDS011;41678;52.126;20.664;2023-05-27T16:49:17;6.28;;;1.10;;
55758;SDS011;41678;52.126;20.664;2023-05-27T16:54:37;4.05;;;1.00;;
55758;SDS011;41678;52.126;20.664;2023-05-27T16:59:56;3.63;;;1.00;;
55758;SDS011;41678;52.126;20.664;2023-05-27T17:11:14;4.32;;;0.80;;
55758;SDS011;41678;52.126;20.664;2023-05-27T17:16:34;4.68;;;0.95;;
55758;SDS011;41678;52.126;20.664;2023-05-27T17:21:53;7.32;;;1.20;;
55758;SDS011;41678;52.126;20.664;2023-05-27T17:27:13;11.02;;;1.30;;
55758;SDS011;41678;52.126;20.664;2023-05-27T17:32:33;4.78;;;1.05;;
55758;SDS011;41678;52.126;20.664;2023-05-27T17:37:52;3.63;;;1.00;;
55758;SDS011;41678;52.126;20.664;2023-05-27T17:43:12;4.35;;;1.25;;
55758;SDS011;41678;52.126;20.664;2023-05-27T17:48:31;3.90;;;1.00;;
55758;SDS011;41678;52.126;20.664;2023-05-27T17:53:50;5.55;;;1.00;;
55758;SDS011;41678;52.126;20.664;2023-05-27T17:59:11;12.70;;;1.42;;
55758;SDS011;41678;52.126;20.664;2023-05-27T18:04:31;3.67;;;1.08;;
55758;SDS011;41678;52.126;20.664;2023-05-27T18:09:50;6.68;;;1.25;;
55758;SDS011;41678;52.126;20.664;2023-05-27T18:15:10;7.70;;;1.05;;
55758;SDS011;41678;52.126;20.664;2023-05-27T18:20:30;5.00;;;1.25;;
55758;SDS011;41678;52.126;20.664;2023-05-27T18:25:50;5.40;;;1.50;;
55758;SDS011;41678;52.126;20.664;2023-05-27T18:31:10;6.65;;;2.13;;
55758;SDS011;41678;52.126;20.664;2023-05-27T18:36:29;9.25;;;1.75;;
55758;SDS011;41678;52.126;20.664;2023-05-27T18:41:50;5.50;;;1.70;;
55758;SDS011;41678;52.126;20.664;2023-05-27T18:47:09;9.50;;;1.50;;
55758;SDS011;41678;52.126;20.664;2023-05-27T18:52:29;9.95;;;1.85;;
55758;SDS011;41678;52.126;20.664;2023-05-27T18:57:49;6.20;;;1.45;;
55758;SDS011;41678;52.126;20.664;2023-05-27T19:03:10;5.90;;;1.92;;
55758;SDS011;41678;52.126;20.664;2023-05-27T19:08:30;6.00;;;1.80;;
55758;SDS011;41678;52.126;20.664;2023-05-27T19:13:49;7.60;;;1.83;;
55758;SDS011;41678;52.126;20.664;2023-05-27T19:19:09;5.70;;;1.70;;
55758;SDS011;41678;52.126;20.664;2023-05-27T19:24:29;7.88;;;2.05;;
55758;SDS011;41678;52.126;20.664;2023-05-27T19:29:49;6.20;;;1.90;;
55758;SDS011;41678;52.126;20.664;2023-05-27T19:35:08;6.35;;;1.85;;
55758;SDS011;41678;52.126;20.664;2023-05-27T19:40:28;9.38;;;3.13;;
55758;SDS011;41678;52.126;20.664;2023-05-27T19:45:48;11.65;;;3.58;;
55758;SDS011;41678;52.126;20.664;2023-05-27T19:51:07;13.77;;;4.15;;
55758;SDS011;41678;52.126;20.664;2023-05-27T19:56:27;9.52;;;3.38;;
55758;SDS011;41678;52.126;20.664;2023-05-27T20:01:48;9.95;;;3.40;;
55758;SDS011;41678;52.126;20.664;2023-05-27T20:07:07;10.73;;;3.75;;
55758;SDS011;41678;52.126;20.664;2023-05-27T20:12:39;10.93;;;4.03;;
55758;SDS011;41678;52.126;20.664;2023-05-27T20:18:03;20.17;;;4.40;;
55758;SDS011;41678;52.126;20.664;2023-05-27T20:23:22;13.50;;;3.30;;
55758;SDS011;41678;52.126;20.664;2023-05-27T20:28:42;9.70;;;3.47;;
55758;SDS011;41678;52.126;20.664;2023-05-27T20:34:02;9.88;;;4.28;;
55758;SDS011;41678;52.126;20.664;2023-05-27T20:39:22;13.30;;;4.32;;
55758;SDS011;41678;52.126;20.664;2023-05-27T20:44:41;14.65;;;4.10;;
55758;SDS011;41678;52.126;20.664;2023-05-27T20:50:00;14.32;;;3.70;;
55758;SDS011;41678;52.126;20.664;2023-05-27T20:55:20;14.75;;;4.65;;
55758;SDS011;41678;52.126;20.664;2023-05-27T21:00:40;9.95;;;4.60;;
55758;SDS011;41678;52.126;20.664;2023-05-27T21:06:00;13.18;;;4.65;;
55758;SDS011;41678;52.126;20.664;2023-05-27T21:11:19;16.30;;;5.10;;
55758;SDS011;41678;52.126;20.664;2023-05-27T21:16:42;18.95;;;5.20;;
55758;SDS011;41678;52.126;20.664;2023-05-27T21:22:01;15.73;;;4.32;;
55758;SDS011;41678;52.126;20.664;2023-05-27T21:27:22;13.73;;;4.40;;
55758;SDS011;41678;52.126;20.664;2023-05-27T21:32:43;11.37;;;4.93;;
55758;SDS011;41678;52.126;20.664;2023-05-27T21:38:02;19.40;;;5.15;;
55758;SDS011;41678;52.126;20.664;2023-05-27T21:43:25;14.98;;;4.72;;
55758;SDS011;41678;52.126;20.664;2023-05-27T21:48:45;17.98;;;6.05;;
55758;SDS011;41678;52.126;20.664;2023-05-27T21:54:07;15.38;;;5.28;;
55758;SDS011;41678;52.126;20.664;2023-05-27T21:59:27;14.05;;;5.10;;
55758;SDS011;41678;52.126;20.664;2023-05-27T22:04:46;18.92;;;5.38;;
55758;SDS011;41678;52.126;20.664;2023-05-27T22:10:06;14.43;;;5.43;;
55758;SDS011;41678;52.126;20.664;2023-05-27T22:15:27;13.50;;;5.40;;
55758;SDS011;41678;52.126;20.664;2023-05-27T22:20:47;22.98;;;6.30;;
55758;SDS011;41678;52.126;20.664;2023-05-27T22:26:06;22.45;;;6.90;;
55758;SDS011;41678;52.126;20.664;2023-05-27T22:31:26;16.23;;;6.47;;
55758;SDS011;41678;52.126;20.664;2023-05-27T22:36:46;12.50;;;5.80;;
55758;SDS011;41678;52.126;20.664;2023-05-27T22:42:06;13.15;;;5.13;;
55758;SDS011;41678;52.126;20.664;2023-05-27T22:47:29;15.70;;;6.18;;
55758;SDS011;41678;52.126;20.664;2023-05-27T22:52:49;21.67;;;6.22;;
55758;SDS011;41678;52.126;20.664;2023-05-27T22:58:09;15.30;;;6.07;;
55758;SDS011;41678;52.126;20.664;2023-05-27T23:03:29;23.30;;;7.10;;
55758;SDS011;41678;52.126;20.664;2023-05-27T23:08:49;19.23;;;6.38;;
55758;SDS011;41678;52.126;20.664;2023-05-27T23:14:08;18.80;;;6.25;;
55758;SDS011;41678;52.126;20.664;2023-05-27T23:19:28;19.95;;;7.22;;
55758;SDS011;41678;52.126;20.664;2023-05-27T23:24:48;16.27;;;6.43;;
55758;SDS011;41678;52.126;20.664;2023-05-27T23:30:08;15.70;;;7.03;;
55758;SDS011;41678;52.126;20.664;2023-05-27T23:35:27;19.02;;;6.97;;
55758;SDS011;41678;52.126;20.664;2023-05-27T23:40:48;18.70;;;7.75;;
55758;SDS011;41678;52.126;20.664;2023-05-27T23:46:09;17.98;;;7.05;;
55758;SDS011;41678;52.126;20.664;2023-05-27T23:51:28;14.90;;;6.40;;
55758;SDS011;41678;52.126;20.664;2023-05-27T23:56:48;13.15;;;6.45;;
